sensor_id;sensor_type;location;lat;lon;timestamp;P1;durP1;ratioP1;P2;durP2;ratioP2
4313;SDS011;2170;48.794;9.182;2023-01-01T00:02:24;93.93;;;81.93;;
4313;SDS011;2170;48.794;9.182;2023-01-01T00:04:51;86.93;;;77.77;;
4313;SDS011;2170;48.794;9.182;2023-01-01T00:07:18;83.57;;;74.47;;
4313;SDS011;2170;48.794;9.182;2023-01-01T00:09:45;75.80;;;67.17;;
4313;SDS011;2170;48.794;9.182;2023-01-01T00:12:29;75.83;;;67.80;;
4313;SDS011;2170;48.794;9.182;2023-01-01T00:14:57;68.97;;;58.43;;
4313;SDS011;2170;48.794;9.182;2023-01-01T00:17:25;52.07;;;46.43;;
4313;SDS011;2170;48.794;9.182;2023-01-01T00:19:52;51.83;;;46.20;;
4313;SDS011;2170;48.794;9.182;2023-01-01T00:22:19;50.97;;;45.03;;
4313;SDS011;2170;48.794;9.182;2023-01-01T00:24:46;47.70;;;42.73;;
4313;SDS011;2170;48.794;9.182;2023-01-01T00:27:13;44.70;;;40.03;;
4313;SDS011;2170;48.794;9.182;2023-01-01T00:29:40;40.87;;;36.33;;
4313;SDS011;2170;48.794;9.182;2023-01-01T00:32:07;35.80;;;32.00;;
4313;SDS011;2170;48.794;9.182;2023-01-01T00:34:37;33.00;;;29.67;;
4313;SDS011;2170;48.794;9.182;2023-01-01T00:37:05;27.90;;;25.23;;
4313;SDS011;2170;48.794;9.182;2023-01-01T00:39:32;27.77;;;24.87;;
4313;SDS011;2170;48.794;9.182;2023-01-01T00:41:59;26.90;;;24.20;;
4313;SDS011;2170;48.794;9.182;2023-01-01T00:44:26;27.50;;;24.47;;
4313;SDS011;2170;48.794;9.182;2023-01-01T00:46:53;24.67;;;22.27;;
4313;SDS011;2170;48.794;9.182;2023-01-01T00:49:20;22.63;;;20.53;;
4313;SDS011;2170;48.794;9.182;2023-01-01T00:51:49;22.20;;;20.03;;
4313;SDS011;2170;48.794;9.182;2023-01-01T00:54:16;19.10;;;17.20;;
4313;SDS011;2170;48.794;9.182;2023-01-01T00:56:43;15.90;;;14.33;;
4313;SDS011;2170;48.794;9.182;2023-01-01T00:59:10;19.43;;;15.10;;
4313;SDS011;2170;48.794;9.182;2023-01-01T01:01:37;15.17;;;13.67;;
4313;SDS011;2170;48.794;9.182;2023-01-01T01:04:06;16.30;;;12.57;;
4313;SDS011;2170;48.794;9.182;2023-01-01T01:06:34;15.30;;;12.77;;
4313;SDS011;2170;48.794;9.182;2023-01-01T01:09:02;18.13;;;13.90;;
4313;SDS011;2170;48.794;9.182;2023-01-01T01:11:31;12.43;;;11.20;;
4313;SDS011;2170;48.794;9.182;2023-01-01T01:13:58;12.83;;;11.53;;
4313;SDS011;2170;48.794;9.182;2023-01-01T01:16:26;13.47;;;12.20;;
4313;SDS011;2170;48.794;9.182;2023-01-01T01:18:55;12.43;;;11.17;;
4313;SDS011;2170;48.794;9.182;2023-01-01T01:21:23;13.90;;;12.53;;
4313;SDS011;2170;48.794;9.182;2023-01-01T01:23:51;13.80;;;12.50;;
4313;SDS011;2170;48.794;9.182;2023-01-01T01:26:21;13.40;;;12.03;;
4313;SDS011;2170;48.794;9.182;2023-01-01T01:28:48;14.73;;;13.20;;
4313;SDS011;2170;48.794;9.182;2023-01-01T01:31:16;14.50;;;12.93;;
4313;SDS011;2170;48.794;9.182;2023-01-01T01:33:43;14.70;;;13.40;;
4313;SDS011;2170;48.794;9.182;2023-01-01T01:36:10;20.63;;;17.43;;
4313;SDS011;2170;48.794;9.182;2023-01-01T01:38:37;14.90;;;13.60;;
4313;SDS011;2170;48.794;9.182;2023-01-01T01:41:05;17.80;;;15.00;;
4313;SDS011;2170;48.794;9.182;2023-01-01T01:43:49;15.20;;;13.70;;
4313;SDS011;2170;48.794;9.182;2023-01-01T01:46:16;14.70;;;13.17;;
4313;SDS011;2170;48.794;9.182;2023-01-01T01:48:45;14.47;;;13.17;;
4313;SDS011;2170;48.794;9.182;2023-01-01T01:51:14;15.40;;;13.80;;
4313;SDS011;2170;48.794;9.182;2023-01-01T01:53:43;16.70;;;15.00;;
4313;SDS011;2170;48.794;9.182;2023-01-01T01:56:11;17.50;;;14.20;;
4313;SDS011;2170;48.794;9.182;2023-01-01T01:58:39;15.80;;;14.10;;
4313;SDS011;2170;48.794;9.182;2023-01-01T02:01:08;17.23;;;15.43;;
4313;SDS011;2170;48.794;9.182;2023-01-01T02:03:35;16.50;;;14.80;;
4313;SDS011;2170;48.794;9.182;2023-01-01T02:06:03;14.57;;;13.03;;
4313;SDS011;2170;48.794;9.182;2023-01-01T02:08:31;16.20;;;14.60;;
4313;SDS011;2170;48.794;9.182;2023-01-01T02:10:59;14.67;;;12.60;;
4313;SDS011;2170;48.794;9.182;2023-01-01T02:13:26;14.33;;;12.90;;
4313;SDS011;2170;48.794;9.182;2023-01-01T02:15:54;16.00;;;14.30;;
4313;SDS011;2170;48.794;9.182;2023-01-01T02:18:24;15.70;;;14.10;;
4313;SDS011;2170;48.794;9.182;2023-01-01T02:20:57;14.93;;;13.33;;
4313;SDS011;2170;48.794;9.182;2023-01-01T02:26:14;15.03;;;12.63;;
4313;SDS011;2170;48.794;9.182;2023-01-01T02:28:48;14.93;;;13.40;;
4313;SDS011;2170;48.794;9.182;2023-01-01T02:31:20;14.27;;;12.97;;
4313;SDS011;2170;48.794;9.182;2023-01-01T02:33:48;15.87;;;14.27;;
4313;SDS011;2170;48.794;9.182;2023-01-01T02:36:16;17.50;;;15.80;;
4313;SDS011;2170;48.794;9.182;2023-01-01T02:38:45;17.73;;;15.90;;
4313;SDS011;2170;48.794;9.182;2023-01-01T02:41:14;18.63;;;16.60;;
4313;SDS011;2170;48.794;9.182;2023-01-01T02:43:43;21.57;;;18.07;;
4313;SDS011;2170;48.794;9.182;2023-01-01T02:46:12;19.27;;;17.17;;
4313;SDS011;2170;48.794;9.182;2023-01-01T02:48:40;18.47;;;16.57;;
4313;SDS011;2170;48.794;9.182;2023-01-01T02:51:10;16.10;;;14.40;;
4313;SDS011;2170;48.794;9.182;2023-01-01T02:53:40;16.37;;;14.77;;
4313;SDS011;2170;48.794;9.182;2023-01-01T02:56:10;17.40;;;14.70;;
4313;SDS011;2170;48.794;9.182;2023-01-01T02:58:42;17.13;;;15.50;;
4313;SDS011;2170;48.794;9.182;2023-01-01T03:01:33;17.03;;;14.73;;
4313;SDS011;2170;48.794;9.182;2023-01-01T03:04:04;16.17;;;14.50;;
4313;SDS011;2170;48.794;9.182;2023-01-01T03:06:35;16.60;;;15.03;;
4313;SDS011;2170;48.794;9.182;2023-01-01T03:09:09;16.63;;;14.93;;
4313;SDS011;2170;48.794;9.182;2023-01-01T03:11:40;16.07;;;14.30;;
4313;SDS011;2170;48.794;9.182;2023-01-01T03:14:11;18.57;;;15.77;;
4313;SDS011;2170;48.794;9.182;2023-01-01T03:16:41;17.40;;;15.23;;
4313;SDS011;2170;48.794;9.182;2023-01-01T03:19:11;19.30;;;17.40;;
4313;SDS011;2170;48.794;9.182;2023-01-01T03:21:40;17.80;;;15.77;;
4313;SDS011;2170;48.794;9.182;2023-01-01T03:24:08;17.93;;;16.03;;
4313;SDS011;2170;48.794;9.182;2023-01-01T03:26:37;17.97;;;14.47;;
4313;SDS011;2170;48.794;9.182;2023-01-01T03:29:05;15.27;;;13.67;;
4313;SDS011;2170;48.794;9.182;2023-01-01T03:31:34;15.20;;;13.70;;
4313;SDS011;2170;48.794;9.182;2023-01-01T03:34:04;13.37;;;12.07;;
4313;SDS011;2170;48.794;9.182;2023-01-01T03:36:32;14.87;;;13.37;;
4313;SDS011;2170;48.794;9.182;2023-01-01T03:39:03;17.10;;;14.20;;
4313;SDS011;2170;48.794;9.182;2023-01-01T03:41:31;14.33;;;10.60;;
4313;SDS011;2170;48.794;9.182;2023-01-01T03:44:01;13.13;;;11.77;;
4313;SDS011;2170;48.794;9.182;2023-01-01T03:46:30;11.40;;;10.23;;
4313;SDS011;2170;48.794;9.182;2023-01-01T03:48:59;10.10;;;9.13;;
4313;SDS011;2170;48.794;9.182;2023-01-01T03:51:29;9.43;;;8.50;;
4313;SDS011;2170;48.794;9.182;2023-01-01T03:54:00;11.40;;;9.60;;
4313;SDS011;2170;48.794;9.182;2023-01-01T03:56:30;12.87;;;11.43;;
4313;SDS011;2170;48.794;9.182;2023-01-01T03:59:01;12.70;;;9.90;;
4313;SDS011;2170;48.794;9.182;2023-01-01T04:01:32;13.00;;;10.70;;
4313;SDS011;2170;48.794;9.182;2023-01-01T04:04:00;16.73;;;12.50;;
4313;SDS011;2170;48.794;9.182;2023-01-01T04:06:32;14.87;;;12.80;;
4313;SDS011;2170;48.794;9.182;2023-01-01T04:08:59;15.70;;;12.63;;
4313;SDS011;2170;48.794;9.182;2023-01-01T04:11:27;13.27;;;11.87;;
4313;SDS011;2170;48.794;9.182;2023-01-01T04:14:13;11.40;;;10.20;;
4313;SDS011;2170;48.794;9.182;2023-01-01T04:16:40;9.10;;;8.23;;
4313;SDS011;2170;48.794;9.182;2023-01-01T04:19:07;9.50;;;8.53;;
4313;SDS011;2170;48.794;9.182;2023-01-01T04:21:35;8.93;;;8.03;;
4313;SDS011;2170;48.794;9.182;2023-01-01T04:24:03;9.77;;;8.80;;
4313;SDS011;2170;48.794;9.182;2023-01-01T04:26:30;9.50;;;8.00;;
4313;SDS011;2170;48.794;9.182;2023-01-01T04:28:57;9.80;;;8.07;;
4313;SDS011;2170;48.794;9.182;2023-01-01T04:31:24;9.73;;;7.70;;
4313;SDS011;2170;48.794;9.182;2023-01-01T04:33:52;8.00;;;6.80;;
4313;SDS011;2170;48.794;9.182;2023-01-01T04:36:19;8.90;;;7.60;;
4313;SDS011;2170;48.794;9.182;2023-01-01T04:38:47;11.67;;;7.40;;
4313;SDS011;2170;48.794;9.182;2023-01-01T04:41:14;9.37;;;7.13;;
4313;SDS011;2170;48.794;9.182;2023-01-01T04:43:43;7.60;;;6.90;;
4313;SDS011;2170;48.794;9.182;2023-01-01T04:46:13;6.40;;;5.80;;
4313;SDS011;2170;48.794;9.182;2023-01-01T04:48:40;7.20;;;6.50;;
4313;SDS011;2170;48.794;9.182;2023-01-01T04:51:08;9.57;;;6.67;;
4313;SDS011;2170;48.794;9.182;2023-01-01T04:53:36;7.70;;;7.00;;
4313;SDS011;2170;48.794;9.182;2023-01-01T04:56:04;8.80;;;6.57;;
4313;SDS011;2170;48.794;9.182;2023-01-01T04:58:32;7.43;;;6.37;;
4313;SDS011;2170;48.794;9.182;2023-01-01T05:00:59;7.03;;;6.33;;
4313;SDS011;2170;48.794;9.182;2023-01-01T05:03:26;6.37;;;5.77;;
4313;SDS011;2170;48.794;9.182;2023-01-01T05:05:59;7.70;;;6.47;;
4313;SDS011;2170;48.794;9.182;2023-01-01T05:08:27;6.03;;;5.33;;
4313;SDS011;2170;48.794;9.182;2023-01-01T05:10:58;6.60;;;5.97;;
4313;SDS011;2170;48.794;9.182;2023-01-01T05:13:26;6.17;;;5.57;;
4313;SDS011;2170;48.794;9.182;2023-01-01T05:15:53;8.03;;;5.93;;
4313;SDS011;2170;48.794;9.182;2023-01-01T05:18:21;8.50;;;7.60;;
4313;SDS011;2170;48.794;9.182;2023-01-01T05:20:48;7.27;;;6.53;;
4313;SDS011;2170;48.794;9.182;2023-01-01T05:23:15;7.20;;;6.50;;
4313;SDS011;2170;48.794;9.182;2023-01-01T05:25:42;6.33;;;5.73;;
4313;SDS011;2170;48.794;9.182;2023-01-01T05:28:09;6.33;;;5.73;;
4313;SDS011;2170;48.794;9.182;2023-01-01T05:30:39;7.20;;;6.30;;
4313;SDS011;2170;48.794;9.182;2023-01-01T05:33:06;6.30;;;5.70;;
4313;SDS011;2170;48.794;9.182;2023-01-01T05:35:33;6.70;;;5.93;;
4313;SDS011;2170;48.794;9.182;2023-01-01T05:38:00;5.70;;;5.20;;
4313;SDS011;2170;48.794;9.182;2023-01-01T05:40:28;6.20;;;5.60;;
4313;SDS011;2170;48.794;9.182;2023-01-01T05:42:55;6.57;;;5.97;;
4313;SDS011;2170;48.794;9.182;2023-01-01T05:45:22;5.70;;;5.00;;
4313;SDS011;2170;48.794;9.182;2023-01-01T05:47:50;6.40;;;5.23;;
4313;SDS011;2170;48.794;9.182;2023-01-01T05:50:17;6.87;;;5.87;;
4313;SDS011;2170;48.794;9.182;2023-01-01T05:52:44;5.90;;;5.20;;
4313;SDS011;2170;48.794;9.182;2023-01-01T05:55:11;8.57;;;5.50;;
4313;SDS011;2170;48.794;9.182;2023-01-01T05:57:38;5.40;;;4.80;;
4313;SDS011;2170;48.794;9.182;2023-01-01T06:00:06;6.57;;;5.60;;
4313;SDS011;2170;48.794;9.182;2023-01-01T06:02:33;5.90;;;5.30;;
4313;SDS011;2170;48.794;9.182;2023-01-01T06:05:02;4.93;;;4.43;;
4313;SDS011;2170;48.794;9.182;2023-01-01T06:07:29;6.03;;;5.43;;
4313;SDS011;2170;48.794;9.182;2023-01-01T06:09:56;5.40;;;4.90;;
4313;SDS011;2170;48.794;9.182;2023-01-01T06:12:23;5.20;;;4.50;;
4313;SDS011;2170;48.794;9.182;2023-01-01T06:14:50;5.73;;;5.10;;
4313;SDS011;2170;48.794;9.182;2023-01-01T06:17:17;5.73;;;4.80;;
4313;SDS011;2170;48.794;9.182;2023-01-01T06:19:44;5.47;;;4.93;;
4313;SDS011;2170;48.794;9.182;2023-01-01T06:22:13;5.90;;;5.30;;
4313;SDS011;2170;48.794;9.182;2023-01-01T06:24:40;5.30;;;4.60;;
4313;SDS011;2170;48.794;9.182;2023-01-01T06:27:07;5.10;;;4.70;;
4313;SDS011;2170;48.794;9.182;2023-01-01T06:29:34;5.23;;;4.73;;
4313;SDS011;2170;48.794;9.182;2023-01-01T06:32:02;6.40;;;5.80;;
4313;SDS011;2170;48.794;9.182;2023-01-01T06:34:29;4.87;;;4.47;;
4313;SDS011;2170;48.794;9.182;2023-01-01T06:36:56;5.60;;;4.90;;
4313;SDS011;2170;48.794;9.182;2023-01-01T06:39:24;6.17;;;5.57;;
4313;SDS011;2170;48.794;9.182;2023-01-01T06:41:51;6.73;;;4.97;;
4313;SDS011;2170;48.794;9.182;2023-01-01T06:44:18;5.50;;;4.90;;
4313;SDS011;2170;48.794;9.182;2023-01-01T06:46:45;4.83;;;4.40;;
4313;SDS011;2170;48.794;9.182;2023-01-01T06:49:12;6.20;;;5.50;;
4313;SDS011;2170;48.794;9.182;2023-01-01T06:51:39;6.23;;;5.63;;
4313;SDS011;2170;48.794;9.182;2023-01-01T06:54:07;4.73;;;4.13;;
4313;SDS011;2170;48.794;9.182;2023-01-01T06:56:36;5.23;;;4.73;;
4313;SDS011;2170;48.794;9.182;2023-01-01T06:59:03;5.30;;;4.80;;
4313;SDS011;2170;48.794;9.182;2023-01-01T07:01:31;5.37;;;4.87;;
4313;SDS011;2170;48.794;9.182;2023-01-01T07:04:00;4.93;;;4.43;;
4313;SDS011;2170;48.794;9.182;2023-01-01T07:06:28;5.37;;;4.87;;
4313;SDS011;2170;48.794;9.182;2023-01-01T07:08:55;4.83;;;4.30;;
4313;SDS011;2170;48.794;9.182;2023-01-01T07:11:22;5.97;;;4.47;;
4313;SDS011;2170;48.794;9.182;2023-01-01T07:13:51;5.47;;;4.87;;
4313;SDS011;2170;48.794;9.182;2023-01-01T07:16:18;4.33;;;3.40;;
4313;SDS011;2170;48.794;9.182;2023-01-01T07:18:45;7.00;;;5.10;;
4313;SDS011;2170;48.794;9.182;2023-01-01T07:24:02;4.70;;;4.30;;
4313;SDS011;2170;48.794;9.182;2023-01-01T07:26:29;5.20;;;4.70;;
4313;SDS011;2170;48.794;9.182;2023-01-01T07:28:58;4.63;;;4.23;;
4313;SDS011;2170;48.794;9.182;2023-01-01T07:31:25;4.43;;;4.03;;
4313;SDS011;2170;48.794;9.182;2023-01-01T07:33:53;6.07;;;5.03;;
4313;SDS011;2170;48.794;9.182;2023-01-01T07:36:19;4.97;;;4.57;;
4313;SDS011;2170;48.794;9.182;2023-01-01T07:38:47;4.93;;;4.53;;
4313;SDS011;2170;48.794;9.182;2023-01-01T07:41:14;7.60;;;4.50;;
4313;SDS011;2170;48.794;9.182;2023-01-01T07:43:41;4.80;;;4.33;;
4313;SDS011;2170;48.794;9.182;2023-01-01T07:46:10;4.80;;;4.27;;
4313;SDS011;2170;48.794;9.182;2023-01-01T07:48:38;4.50;;;4.10;;
4313;SDS011;2170;48.794;9.182;2023-01-01T07:51:05;4.73;;;4.20;;
4313;SDS011;2170;48.794;9.182;2023-01-01T07:53:32;4.93;;;4.40;;
4313;SDS011;2170;48.794;9.182;2023-01-01T07:55:59;4.43;;;4.03;;
4313;SDS011;2170;48.794;9.182;2023-01-01T07:58:26;6.17;;;4.90;;
4313;SDS011;2170;48.794;9.182;2023-01-01T08:00:53;4.23;;;3.83;;
4313;SDS011;2170;48.794;9.182;2023-01-01T08:03:21;4.77;;;4.20;;
4313;SDS011;2170;48.794;9.182;2023-01-01T08:05:48;4.93;;;4.33;;
4313;SDS011;2170;48.794;9.182;2023-01-01T08:08:16;4.83;;;4.30;;
4313;SDS011;2170;48.794;9.182;2023-01-01T08:10:43;5.07;;;4.57;;
4313;SDS011;2170;48.794;9.182;2023-01-01T08:13:10;5.60;;;4.80;;
4313;SDS011;2170;48.794;9.182;2023-01-01T08:15:37;5.17;;;4.67;;
4313;SDS011;2170;48.794;9.182;2023-01-01T08:18:04;5.33;;;4.90;;
4313;SDS011;2170;48.794;9.182;2023-01-01T08:20:33;4.63;;;4.10;;
4313;SDS011;2170;48.794;9.182;2023-01-01T08:23:00;5.33;;;4.83;;
4313;SDS011;2170;48.794;9.182;2023-01-01T08:25:27;6.00;;;4.50;;
4313;SDS011;2170;48.794;9.182;2023-01-01T08:27:54;4.90;;;4.50;;
4313;SDS011;2170;48.794;9.182;2023-01-01T08:30:21;5.73;;;5.00;;
4313;SDS011;2170;48.794;9.182;2023-01-01T08:32:48;5.17;;;4.50;;
4313;SDS011;2170;48.794;9.182;2023-01-01T08:35:15;6.23;;;5.63;;
4313;SDS011;2170;48.794;9.182;2023-01-01T08:37:44;6.63;;;5.50;;
4313;SDS011;2170;48.794;9.182;2023-01-01T08:40:11;5.90;;;5.30;;
4313;SDS011;2170;48.794;9.182;2023-01-01T08:42:38;5.87;;;5.37;;
4313;SDS011;2170;48.794;9.182;2023-01-01T08:45:06;5.83;;;5.20;;
4313;SDS011;2170;48.794;9.182;2023-01-01T08:47:33;5.97;;;5.37;;
4313;SDS011;2170;48.794;9.182;2023-01-01T08:50:00;6.30;;;5.60;;
4313;SDS011;2170;48.794;9.182;2023-01-01T08:52:27;4.60;;;4.20;;
4313;SDS011;2170;48.794;9.182;2023-01-01T08:54:56;4.60;;;3.90;;
4313;SDS011;2170;48.794;9.182;2023-01-01T08:57:23;4.40;;;4.00;;
4313;SDS011;2170;48.794;9.182;2023-01-01T08:59:50;4.33;;;3.93;;
4313;SDS011;2170;48.794;9.182;2023-01-01T09:02:17;5.10;;;4.53;;
4313;SDS011;2170;48.794;9.182;2023-01-01T09:04:44;5.50;;;5.00;;
4313;SDS011;2170;48.794;9.182;2023-01-01T09:07:11;6.00;;;5.50;;
4313;SDS011;2170;48.794;9.182;2023-01-01T09:09:38;5.60;;;5.10;;
4313;SDS011;2170;48.794;9.182;2023-01-01T09:12:07;5.43;;;4.93;;
4313;SDS011;2170;48.794;9.182;2023-01-01T09:14:36;5.27;;;4.87;;
4313;SDS011;2170;48.794;9.182;2023-01-01T09:17:03;5.30;;;4.80;;
4313;SDS011;2170;48.794;9.182;2023-01-01T09:19:30;7.57;;;5.03;;
4313;SDS011;2170;48.794;9.182;2023-01-01T09:21:57;5.73;;;5.13;;
4313;SDS011;2170;48.794;9.182;2023-01-01T09:24:24;5.30;;;4.80;;
4313;SDS011;2170;48.794;9.182;2023-01-01T09:26:51;4.70;;;4.30;;
4313;SDS011;2170;48.794;9.182;2023-01-01T09:29:19;4.60;;;4.20;;
4313;SDS011;2170;48.794;9.182;2023-01-01T09:31:47;4.93;;;4.43;;
4313;SDS011;2170;48.794;9.182;2023-01-01T09:34:14;4.20;;;3.80;;
4313;SDS011;2170;48.794;9.182;2023-01-01T09:36:41;6.40;;;5.00;;
4313;SDS011;2170;48.794;9.182;2023-01-01T09:39:09;4.50;;;4.10;;
4313;SDS011;2170;48.794;9.182;2023-01-01T09:41:41;3.97;;;3.53;;
4313;SDS011;2170;48.794;9.182;2023-01-01T09:44:12;5.57;;;3.73;;
4313;SDS011;2170;48.794;9.182;2023-01-01T09:46:44;5.30;;;3.50;;
4313;SDS011;2170;48.794;9.182;2023-01-01T09:49:14;3.70;;;3.43;;
4313;SDS011;2170;48.794;9.182;2023-01-01T09:51:42;4.90;;;3.27;;
4313;SDS011;2170;48.794;9.182;2023-01-01T09:54:24;3.83;;;3.53;;
4313;SDS011;2170;48.794;9.182;2023-01-01T09:56:53;4.20;;;3.80;;
4313;SDS011;2170;48.794;9.182;2023-01-01T09:59:21;6.17;;;4.03;;
4313;SDS011;2170;48.794;9.182;2023-01-01T10:01:51;4.17;;;3.87;;
4313;SDS011;2170;48.794;9.182;2023-01-01T10:04:27;3.77;;;3.47;;
4313;SDS011;2170;48.794;9.182;2023-01-01T10:06:57;3.80;;;3.37;;
4313;SDS011;2170;48.794;9.182;2023-01-01T10:09:26;4.60;;;3.20;;
4313;SDS011;2170;48.794;9.182;2023-01-01T10:11:57;4.00;;;3.60;;
4313;SDS011;2170;48.794;9.182;2023-01-01T10:14:27;4.13;;;3.40;;
4313;SDS011;2170;48.794;9.182;2023-01-01T10:16:57;4.70;;;3.73;;
4313;SDS011;2170;48.794;9.182;2023-01-01T10:19:26;7.13;;;3.63;;
4313;SDS011;2170;48.794;9.182;2023-01-01T10:21:57;5.07;;;4.43;;
4313;SDS011;2170;48.794;9.182;2023-01-01T10:24:30;4.17;;;3.83;;
4313;SDS011;2170;48.794;9.182;2023-01-01T10:26:59;4.70;;;3.77;;
4313;SDS011;2170;48.794;9.182;2023-01-01T10:29:28;3.57;;;3.30;;
4313;SDS011;2170;48.794;9.182;2023-01-01T10:32:00;5.47;;;3.53;;
4313;SDS011;2170;48.794;9.182;2023-01-01T10:34:31;5.03;;;3.70;;
4313;SDS011;2170;48.794;9.182;2023-01-01T10:36:58;3.80;;;3.40;;
4313;SDS011;2170;48.794;9.182;2023-01-01T10:39:26;4.30;;;4.00;;
4313;SDS011;2170;48.794;9.182;2023-01-01T10:41:53;3.90;;;3.50;;
4313;SDS011;2170;48.794;9.182;2023-01-01T10:44:25;5.23;;;3.30;;
4313;SDS011;2170;48.794;9.182;2023-01-01T10:46:54;4.10;;;3.70;;
4313;SDS011;2170;48.794;9.182;2023-01-01T10:49:23;7.40;;;3.67;;
4313;SDS011;2170;48.794;9.182;2023-01-01T10:51:51;5.43;;;3.60;;
4313;SDS011;2170;48.794;9.182;2023-01-01T10:54:28;3.80;;;3.47;;
4313;SDS011;2170;48.794;9.182;2023-01-01T10:56:57;4.43;;;3.50;;
4313;SDS011;2170;48.794;9.182;2023-01-01T10:59:35;7.90;;;4.00;;
4313;SDS011;2170;48.794;9.182;2023-01-01T11:04:45;4.17;;;3.77;;
4313;SDS011;2170;48.794;9.182;2023-01-01T11:07:17;5.80;;;3.70;;
4313;SDS011;2170;48.794;9.182;2023-01-01T11:09:47;4.30;;;3.23;;
4313;SDS011;2170;48.794;9.182;2023-01-01T11:12:16;4.60;;;4.20;;
4313;SDS011;2170;48.794;9.182;2023-01-01T11:14:47;7.57;;;3.67;;
4313;SDS011;2170;48.794;9.182;2023-01-01T11:17:19;4.13;;;3.30;;
4313;SDS011;2170;48.794;9.182;2023-01-01T11:19:48;5.10;;;3.37;;
4313;SDS011;2170;48.794;9.182;2023-01-01T11:22:33;3.27;;;3.00;;
4313;SDS011;2170;48.794;9.182;2023-01-01T11:25:01;4.10;;;3.60;;
4313;SDS011;2170;48.794;9.182;2023-01-01T11:27:28;4.77;;;3.77;;
4313;SDS011;2170;48.794;9.182;2023-01-01T11:30:12;4.50;;;3.30;;
4313;SDS011;2170;48.794;9.182;2023-01-01T11:32:39;4.27;;;3.23;;
4313;SDS011;2170;48.794;9.182;2023-01-01T11:35:14;3.80;;;3.13;;
4313;SDS011;2170;48.794;9.182;2023-01-01T11:37:43;4.17;;;3.20;;
4313;SDS011;2170;48.794;9.182;2023-01-01T11:40:14;7.43;;;3.70;;
4313;SDS011;2170;48.794;9.182;2023-01-01T11:42:43;5.70;;;3.57;;
4313;SDS011;2170;48.794;9.182;2023-01-01T11:45:13;4.57;;;3.80;;
4313;SDS011;2170;48.794;9.182;2023-01-01T11:47:44;4.27;;;3.40;;
4313;SDS011;2170;48.794;9.182;2023-01-01T11:50:21;5.10;;;4.00;;
4313;SDS011;2170;48.794;9.182;2023-01-01T11:52:50;5.20;;;3.17;;
4313;SDS011;2170;48.794;9.182;2023-01-01T11:55:19;3.70;;;3.17;;
4313;SDS011;2170;48.794;9.182;2023-01-01T11:57:53;4.10;;;3.40;;
4313;SDS011;2170;48.794;9.182;2023-01-01T12:00:21;4.70;;;3.70;;
4313;SDS011;2170;48.794;9.182;2023-01-01T12:02:50;5.27;;;3.50;;
4313;SDS011;2170;48.794;9.182;2023-01-01T12:05:21;6.00;;;3.50;;
4313;SDS011;2170;48.794;9.182;2023-01-01T12:07:49;4.37;;;3.30;;
4313;SDS011;2170;48.794;9.182;2023-01-01T12:10:19;4.27;;;3.40;;
4313;SDS011;2170;48.794;9.182;2023-01-01T12:12:49;4.37;;;3.97;;
4313;SDS011;2170;48.794;9.182;2023-01-01T12:15:17;5.03;;;3.50;;
4313;SDS011;2170;48.794;9.182;2023-01-01T12:17:47;3.87;;;3.00;;
4313;SDS011;2170;48.794;9.182;2023-01-01T12:20:16;4.57;;;3.60;;
4313;SDS011;2170;48.794;9.182;2023-01-01T12:22:47;4.40;;;3.30;;
4313;SDS011;2170;48.794;9.182;2023-01-01T12:25:17;4.33;;;3.23;;
4313;SDS011;2170;48.794;9.182;2023-01-01T12:27:47;5.27;;;3.67;;
4313;SDS011;2170;48.794;9.182;2023-01-01T12:30:21;5.50;;;3.13;;
4313;SDS011;2170;48.794;9.182;2023-01-01T12:32:58;5.13;;;3.10;;
4313;SDS011;2170;48.794;9.182;2023-01-01T12:35:33;4.33;;;3.53;;
4313;SDS011;2170;48.794;9.182;2023-01-01T12:38:06;4.70;;;3.10;;
4313;SDS011;2170;48.794;9.182;2023-01-01T12:40:37;4.57;;;4.17;;
4313;SDS011;2170;48.794;9.182;2023-01-01T12:43:07;4.33;;;3.37;;
4313;SDS011;2170;48.794;9.182;2023-01-01T12:48:29;4.10;;;2.93;;
4313;SDS011;2170;48.794;9.182;2023-01-01T12:51:00;4.60;;;3.60;;
4313;SDS011;2170;48.794;9.182;2023-01-01T12:53:32;7.90;;;3.43;;
4313;SDS011;2170;48.794;9.182;2023-01-01T12:56:06;5.40;;;3.40;;
4313;SDS011;2170;48.794;9.182;2023-01-01T12:58:35;4.43;;;3.00;;
4313;SDS011;2170;48.794;9.182;2023-01-01T13:01:05;3.63;;;2.50;;
4313;SDS011;2170;48.794;9.182;2023-01-01T13:03:35;4.43;;;3.03;;
4313;SDS011;2170;48.794;9.182;2023-01-01T13:06:03;4.53;;;2.80;;
4313;SDS011;2170;48.794;9.182;2023-01-01T13:08:32;5.37;;;3.10;;
4313;SDS011;2170;48.794;9.182;2023-01-01T13:10:59;5.83;;;3.30;;
4313;SDS011;2170;48.794;9.182;2023-01-01T13:13:28;4.87;;;2.87;;
4313;SDS011;2170;48.794;9.182;2023-01-01T13:15:55;5.43;;;2.77;;
4313;SDS011;2170;48.794;9.182;2023-01-01T13:18:24;2.60;;;2.37;;
4313;SDS011;2170;48.794;9.182;2023-01-01T13:20:59;4.93;;;2.50;;
4313;SDS011;2170;48.794;9.182;2023-01-01T13:23:44;5.30;;;2.60;;
4313;SDS011;2170;48.794;9.182;2023-01-01T13:31:58;4.50;;;2.77;;
4313;SDS011;2170;48.794;9.182;2023-01-01T13:34:33;5.10;;;2.57;;
4313;SDS011;2170;48.794;9.182;2023-01-01T13:39:51;3.87;;;3.00;;
4313;SDS011;2170;48.794;9.182;2023-01-01T13:42:41;4.30;;;3.20;;
4313;SDS011;2170;48.794;9.182;2023-01-01T13:45:12;7.33;;;3.30;;
4313;SDS011;2170;48.794;9.182;2023-01-01T13:47:44;3.77;;;3.37;;
4313;SDS011;2170;48.794;9.182;2023-01-01T13:50:17;4.80;;;2.80;;
4313;SDS011;2170;48.794;9.182;2023-01-01T13:52:48;3.33;;;2.60;;
4313;SDS011;2170;48.794;9.182;2023-01-01T13:55:35;5.07;;;3.10;;
4313;SDS011;2170;48.794;9.182;2023-01-01T13:58:17;4.33;;;3.27;;
4313;SDS011;2170;48.794;9.182;2023-01-01T14:01:00;4.13;;;2.70;;
4313;SDS011;2170;48.794;9.182;2023-01-01T14:03:33;7.40;;;3.90;;
4313;SDS011;2170;48.794;9.182;2023-01-01T14:06:02;5.77;;;3.30;;
4313;SDS011;2170;48.794;9.182;2023-01-01T14:08:33;4.67;;;2.80;;
4313;SDS011;2170;48.794;9.182;2023-01-01T14:11:02;7.30;;;3.00;;
4313;SDS011;2170;48.794;9.182;2023-01-01T14:13:30;4.00;;;3.20;;
4313;SDS011;2170;48.794;9.182;2023-01-01T14:16:04;6.03;;;3.10;;
4313;SDS011;2170;48.794;9.182;2023-01-01T14:18:35;9.17;;;3.47;;
4313;SDS011;2170;48.794;9.182;2023-01-01T14:21:06;5.43;;;3.50;;
4313;SDS011;2170;48.794;9.182;2023-01-01T14:23:34;5.90;;;3.67;;
4313;SDS011;2170;48.794;9.182;2023-01-01T14:26:05;8.13;;;3.83;;
4313;SDS011;2170;48.794;9.182;2023-01-01T14:28:33;3.70;;;3.50;;
4313;SDS011;2170;48.794;9.182;2023-01-01T14:31:02;7.43;;;4.17;;
4313;SDS011;2170;48.794;9.182;2023-01-01T14:33:31;5.10;;;4.57;;
4313;SDS011;2170;48.794;9.182;2023-01-01T14:35:59;82.33;;;73.93;;
4313;SDS011;2170;48.794;9.182;2023-01-01T14:38:27;14.33;;;12.83;;
4313;SDS011;2170;48.794;9.182;2023-01-01T14:41:01;4.70;;;3.60;;
4313;SDS011;2170;48.794;9.182;2023-01-01T14:43:31;7.50;;;4.40;;
4313;SDS011;2170;48.794;9.182;2023-01-01T14:45:58;6.03;;;3.60;;
4313;SDS011;2170;48.794;9.182;2023-01-01T14:48:25;5.30;;;3.80;;
4313;SDS011;2170;48.794;9.182;2023-01-01T14:50:52;6.97;;;4.67;;
4313;SDS011;2170;48.794;9.182;2023-01-01T14:53:20;5.00;;;4.20;;
4313;SDS011;2170;48.794;9.182;2023-01-01T14:55:50;6.73;;;4.60;;
4313;SDS011;2170;48.794;9.182;2023-01-01T14:58:18;6.13;;;3.87;;
4313;SDS011;2170;48.794;9.182;2023-01-01T15:00:47;6.00;;;4.07;;
4313;SDS011;2170;48.794;9.182;2023-01-01T15:03:14;8.00;;;4.03;;
4313;SDS011;2170;48.794;9.182;2023-01-01T15:05:42;6.40;;;4.77;;
4313;SDS011;2170;48.794;9.182;2023-01-01T15:08:19;6.50;;;4.40;;
4313;SDS011;2170;48.794;9.182;2023-01-01T15:10:46;7.73;;;4.97;;
4313;SDS011;2170;48.794;9.182;2023-01-01T15:13:16;7.30;;;5.30;;
4313;SDS011;2170;48.794;9.182;2023-01-01T15:15:44;6.90;;;5.70;;
4313;SDS011;2170;48.794;9.182;2023-01-01T15:23:26;6.37;;;5.77;;
4313;SDS011;2170;48.794;9.182;2023-01-01T15:25:53;6.23;;;5.63;;
4313;SDS011;2170;48.794;9.182;2023-01-01T15:28:21;9.33;;;6.53;;
4313;SDS011;2170;48.794;9.182;2023-01-01T15:30:50;7.73;;;5.70;;
4313;SDS011;2170;48.794;9.182;2023-01-01T15:33:18;7.67;;;6.87;;
4313;SDS011;2170;48.794;9.182;2023-01-01T15:35:46;12.10;;;6.63;;
4313;SDS011;2170;48.794;9.182;2023-01-01T15:38:15;10.37;;;6.40;;
4313;SDS011;2170;48.794;9.182;2023-01-01T15:40:46;9.93;;;6.43;;
4313;SDS011;2170;48.794;9.182;2023-01-01T15:43:14;9.10;;;6.37;;
4313;SDS011;2170;48.794;9.182;2023-01-01T15:45:50;6.33;;;5.07;;